sensor_id;sensor_type;location;lat;lon;timestamp;temperature;humidity
23560;DHT22;11958;50.836;4.438;2024-01-15T00:01:43;1.90;89.50
23560;DHT22;11958;50.836;4.438;2024-01-15T00:04:09;1.80;89.30
23560;DHT22;11958;50.836;4.438;2024-01-15T00:06:35;1.80;89.50
23560;DHT22;11958;50.836;4.438;2024-01-15T00:09:01;1.70;89.50
23560;DHT22;11958;50.836;4.438;2024-01-15T00:11:27;1.70;89.60
23560;DHT22;11958;50.836;4.438;2024-01-15T00:13:52;1.90;89.70
23560;DHT22;11958;50.836;4.438;2024-01-15T00:16:18;1.90;89.70
23560;DHT22;11958;50.836;4.438;2024-01-15T00:18:47;2.00;89.50
23560;DHT22;11958;50.836;4.438;2024-01-15T00:21:12;1.70;89.80
23560;DHT22;11958;50.836;4.438;2024-01-15T00:23:42;1.70;90.30
23560;DHT22;11958;50.836;4.438;2024-01-15T00:26:09;1.70;90.10
23560;DHT22;11958;50.836;4.438;2024-01-15T00:28:36;1.70;90.30
23560;DHT22;11958;50.836;4.438;2024-01-15T00:31:02;1.70;90.60
23560;DHT22;11958;50.836;4.438;2024-01-15T00:33:27;1.80;90.30
23560;DHT22;11958;50.836;4.438;2024-01-15T00:35:53;1.80;90.50
23560;DHT22;11958;50.836;4.438;2024-01-15T00:38:19;1.70;90.30
23560;DHT22;11958;50.836;4.438;2024-01-15T01:40:07;2.10;90.60
23560;DHT22;11958;50.836;4.438;2024-01-15T01:42:33;2.10;91.30
23560;DHT22;11958;50.836;4.438;2024-01-15T01:44:59;2.00;91.40
23560;DHT22;11958;50.836;4.438;2024-01-15T01:47:25;2.30;91.30
23560;DHT22;11958;50.836;4.438;2024-01-15T01:49:55;2.30;91.00
23560;DHT22;11958;50.836;4.438;2024-01-15T08:38:33;1.70;90.60
23560;DHT22;11958;50.836;4.438;2024-01-15T08:41:01;1.70;89.50
23560;DHT22;11958;50.836;4.438;2024-01-15T09:02:28;2.00;89.40
23560;DHT22;11958;50.836;4.438;2024-01-15T09:44:42;2.10;84.90
23560;DHT22;11958;50.836;4.438;2024-01-15T10:13:11;2.30;81.30
23560;DHT22;11958;50.836;4.438;2024-01-15T16:05:58;1.90;88.80
23560;DHT22;11958;50.836;4.438;2024-01-15T16:08:25;2.00;89.20
23560;DHT22;11958;50.836;4.438;2024-01-15T16:10:51;1.90;89.50
23560;DHT22;11958;50.836;4.438;2024-01-15T16:13:18;1.80;89.20
23560;DHT22;11958;50.836;4.438;2024-01-15T16:25:52;1.90;89.50
23560;DHT22;11958;50.836;4.438;2024-01-15T16:28:38;1.70;89.60
23560;DHT22;11958;50.836;4.438;2024-01-15T16:31:03;1.80;89.70
23560;DHT22;11958;50.836;4.438;2024-01-15T16:45:18;1.80;89.50
23560;DHT22;11958;50.836;4.438;2024-01-15T17:08:08;2.00;89.20
23560;DHT22;11958;50.836;4.438;2024-01-15T17:10:36;1.70;91.40
23560;DHT22;11958;50.836;4.438;2024-01-15T17:13:02;1.60;91.80
23560;DHT22;11958;50.836;4.438;2024-01-15T17:15:29;1.90;91.70
23560;DHT22;11958;50.836;4.438;2024-01-15T17:17:55;1.70;91.80
23560;DHT22;11958;50.836;4.438;2024-01-15T17:20:21;1.70;91.40
23560;DHT22;11958;50.836;4.438;2024-01-15T17:22:46;1.80;91.50
23560;DHT22;11958;50.836;4.438;2024-01-15T17:25:12;1.60;91.70
23560;DHT22;11958;50.836;4.438;2024-01-15T17:27:43;1.60;91.60
23560;DHT22;11958;50.836;4.438;2024-01-15T17:30:09;1.70;91.80
23560;DHT22;11958;50.836;4.438;2024-01-15T17:32:34;1.60;92.00
23560;DHT22;11958;50.836;4.438;2024-01-15T19:11:11;1.60;88.40
23560;DHT22;11958;50.836;4.438;2024-01-15T19:48:31;1.80;85.90
23560;DHT22;11958;50.836;4.438;2024-01-15T19:50:59;1.90;85.60
23560;DHT22;11958;50.836;4.438;2024-01-15T20:00:04;2.10;84.20
23560;DHT22;11958;50.836;4.438;2024-01-15T20:32:02;2.10;84.60
23560;DHT22;11958;50.836;4.438;2024-01-15T20:34:31;1.90;83.90
23560;DHT22;11958;50.836;4.438;2024-01-15T20:36:57;1.90;83.60
23560;DHT22;11958;50.836;4.438;2024-01-15T20:39:26;2.00;84.10
23560;DHT22;11958;50.836;4.438;2024-01-15T20:41:52;2.00;84.00
23560;DHT22;11958;50.836;4.438;2024-01-15T20:44:21;1.80;84.20
23560;DHT22;11958;50.836;4.438;2024-01-15T20:47:12;2.00;84.40
23560;DHT22;11958;50.836;4.438;2024-01-15T20:49:38;1.90;84.20
23560;DHT22;11958;50.836;4.438;2024-01-15T20:52:04;1.90;84.30
23560;DHT22;11958;50.836;4.438;2024-01-15T20:54:30;1.80;84.20
23560;DHT22;11958;50.836;4.438;2024-01-15T20:56:58;1.70;83.60
23560;DHT22;11958;50.836;4.438;2024-01-15T20:59:36;1.80;83.60
23560;DHT22;11958;50.836;4.438;2024-01-15T21:02:01;1.90;84.60
23560;DHT22;11958;50.836;4.438;2024-01-15T21:04:34;1.80;84.00
23560;DHT22;11958;50.836;4.438;2024-01-15T21:36:07;1.70;83.60
23560;DHT22;11958;50.836;4.438;2024-01-15T21:50:42;2.00;83.90
23560;DHT22;11958;50.836;4.438;2024-01-15T21:56:39;2.00;83.40
23560;DHT22;11958;50.836;4.438;2024-01-15T21:59:05;2.10;82.20
23560;DHT22;11958;50.836;4.438;2024-01-15T22:32:00;2.20;82.60
23560;DHT22;11958;50.836;4.438;2024-01-15T23:07:17;1.90;82.80
23560;DHT22;11958;50.836;4.438;2024-01-15T23:09:43;2.10;83.20
23560;DHT22;11958;50.836;4.438;2024-01-15T23:12:24;1.90;83.00
23560;DHT22;11958;50.836;4.438;2024-01-15T23:24:45;1.60;83.80
23560;DHT22;11958;50.836;4.438;2024-01-15T23:30:01;1.80;83.60
23560;DHT22;11958;50.836;4.438;2024-01-15T23:32:30;1.80;83.20
